KSAD/SAD METAR and TAF weather

Enter ICAO airport designator
Station Type Date Time Source
KSAD METAR 2020/09/26 10:51 UTC NOAA

KSAD 261051Z AUTO 31005KT 10SM CLR 24/04 A3000 RMK AO2 SLP098 T02390039


Station Type Date Time Source
KSAD Decoded METAR 2020/09/26 10:51 UTC NOAA

SAFFORD MUNICIPAL AIRPORT, AZ, United States (KSAD) 32-51N 109-38W 962M
Sep 26, 2020 - 06:51 AM EDT / 2020.09.26 1051 UTC
Wind: from the NW (310 degrees) at 6 MPH (5 KT):0
Visibility: 10 mile(s):0
Sky conditions: clear
Temperature: 75.0 F (23.9 C)
Dew Point: 39.0 F (3.9 C)
Relative Humidity: 27%
Pressure (altimeter): 30 in. Hg (1015 hPa)
ob: KSAD 261051Z AUTO 31005KT 10SM CLR 24/04 A3000 RMK AO2 SLP098 T02390039
cycle: 11

Station Type Date Time Source
KSAD TAF UTC NOAA

Error!

Example: see airport list